CSN3002 ZGGG-ZSPD
Flight info
| Callsign | CSN3002 |
|---|---|
| Flight time | 1h 34m |
| Altitude | 39100 |
| Route | BOVMA W41 OMDUP G471 EGEDA/K0895S1220 G471 PLT/K0869S1190 A599 ELNEX G204 SHZ W58 XSY |
| Aircraft | A388/J-SADE2E3FGHIJ3J4J5M1RWXY/LB1D1 |
Departure
| Time | 2026-05-04 04:47 |
|---|---|
| Airport | Guangzhou Baiyun International Airport (ZGGG) |
Arrival
| Time | 2026-05-04 06:21 |
|---|---|
| Airport | Shanghai Pudong International Airport (ZSPD) |
| Time | Latitude | Longitude | Altitude | Speed | Heading |
|---|---|---|---|---|---|
| 2026-05-04 04:20 | 23.38304 | 113.30187 | 63 ft | 0 kts | 324° |
| 2026-05-04 04:36 | 23.38299 | 113.30191 | 54 ft | 1 kts | 324° |
| 2026-05-04 04:36 | 23.38294 | 113.30195 | 54 ft | 1 kts | 324° |
| 2026-05-04 04:36 | 23.38289 | 113.30200 | 54 ft | 1 kts | 324° |
| 2026-05-04 04:36 | 23.38283 | 113.30204 | 57 ft | 1 kts | 324° |
| 2026-05-04 04:37 | 23.38253 | 113.30228 | 54 ft | 2 kts | 324° |
| 2026-05-04 04:37 | 23.38240 | 113.30238 | 54 ft | 2 kts | 324° |
| 2026-05-04 04:38 | 23.38228 | 113.30248 | 54 ft | 2 kts | 320° |
| 2026-05-04 04:38 | 23.38221 | 113.30263 | 54 ft | 2 kts | 290° |
| 2026-05-04 04:38 | 23.38221 | 113.30280 | 54 ft | 2 kts | 261° |
| 2026-05-04 04:38 | 23.38229 | 113.30295 | 54 ft | 2 kts | 232° |
| 2026-05-04 04:39 | 23.38242 | 113.30304 | 54 ft | 2 kts | 202° |
| 2026-05-04 04:39 | 23.38255 | 113.30307 | 54 ft | 0 kts | 194° |
| 2026-05-04 04:42 | 23.38238 | 113.30303 | 54 ft | 6 kts | 194° |
| 2026-05-04 04:42 | 23.38179 | 113.30286 | 57 ft | 12 kts | 194° |
| 2026-05-04 04:42 | 23.38086 | 113.30263 | 56 ft | 16 kts | 192° |
| 2026-05-04 04:43 | 23.37970 | 113.30241 | 55 ft | 18 kts | 190° |
| 2026-05-04 04:43 | 23.37839 | 113.30207 | 59 ft | 21 kts | 194° |
| 2026-05-04 04:43 | 23.37705 | 113.30219 | 58 ft | 20 kts | 155° |
| 2026-05-04 04:43 | 23.37628 | 113.30324 | 57 ft | 18 kts | 109° |
| 2026-05-04 04:44 | 23.37594 | 113.30463 | 60 ft | 20 kts | 103° |
| 2026-05-04 04:44 | 23.37645 | 113.30566 | 56 ft | 16 kts | 16° |
| 2026-05-04 04:44 | 23.37709 | 113.30574 | 58 ft | 0 kts | 10° |
| 2026-05-04 04:45 | 23.37730 | 113.30578 | 55 ft | 22 kts | 10° |
| 2026-05-04 04:45 | 23.38174 | 113.30697 | 60 ft | 106 kts | 14° |
| 2026-05-04 04:47 | 23.44724 | 113.32608 | 2447 ft | 196 kts | 14° |
| 2026-05-04 04:47 | 23.46128 | 113.33030 | 2878 ft | 220 kts | 15° |
| 2026-05-04 04:47 | 23.47655 | 113.33482 | 3549 ft | 233 kts | 15° |
| 2026-05-04 04:47 | 23.49223 | 113.33944 | 4524 ft | 236 kts | 13° |
| 2026-05-04 04:48 | 23.50794 | 113.34397 | 5370 ft | 245 kts | 12° |
| 2026-05-04 04:49 | 23.57802 | 113.36242 | 8510 ft | 269 kts | 5° |
| 2026-05-04 04:49 | 23.59662 | 113.36588 | 9294 ft | 275 kts | 5° |
| 2026-05-04 04:49 | 23.61547 | 113.37073 | 10045 ft | 287 kts | 19° |
| 2026-05-04 04:49 | 23.63189 | 113.38348 | 10753 ft | 301 kts | 46° |
| 2026-05-04 04:50 | 23.64136 | 113.40005 | 11405 ft | 308 kts | 68° |
| 2026-05-04 04:50 | 23.64692 | 113.42310 | 11834 ft | 326 kts | 81° |
| 2026-05-04 04:50 | 23.65024 | 113.44835 | 12049 ft | 348 kts | 83° |
| 2026-05-04 04:50 | 23.65176 | 113.46000 | 12139 ft | 357 kts | 82° |
| 2026-05-04 04:51 | 23.65620 | 113.48871 | 12350 ft | 378 kts | 80° |
| 2026-05-04 04:51 | 23.66145 | 113.51700 | 12723 ft | 391 kts | 78° |
| 2026-05-04 04:51 | 23.66742 | 113.54641 | 13358 ft | 396 kts | 77° |
| 2026-05-04 04:51 | 23.67351 | 113.57542 | 14036 ft | 399 kts | 77° |
| 2026-05-04 04:52 | 23.67980 | 113.60510 | 14612 ft | 404 kts | 77° |
| 2026-05-04 04:52 | 23.68610 | 113.63481 | 15154 ft | 409 kts | 77° |
| 2026-05-04 04:52 | 23.69386 | 113.66518 | 15679 ft | 414 kts | 66° |
| 2026-05-04 04:52 | 23.70744 | 113.69045 | 16287 ft | 414 kts | 49° |
| 2026-05-04 04:53 | 23.72820 | 113.71196 | 16853 ft | 413 kts | 31° |
| 2026-05-04 04:53 | 23.75322 | 113.72713 | 17380 ft | 413 kts | 21° |
| 2026-05-04 04:53 | 23.77940 | 113.74021 | 17927 ft | 416 kts | 20° |
| 2026-05-04 04:53 | 23.80592 | 113.75344 | 18447 ft | 422 kts | 20° |
| 2026-05-04 04:54 | 23.83246 | 113.76724 | 18966 ft | 424 kts | 21° |
| 2026-05-04 04:54 | 23.85897 | 113.78149 | 19536 ft | 426 kts | 22° |
| 2026-05-04 04:54 | 23.88552 | 113.79602 | 20072 ft | 427 kts | 22° |
| 2026-05-04 04:54 | 23.91210 | 113.81067 | 20570 ft | 430 kts | 22° |
| 2026-05-04 04:55 | 23.93885 | 113.82545 | 21115 ft | 431 kts | 22° |
| 2026-05-04 04:55 | 23.96572 | 113.84029 | 21577 ft | 435 kts | 22° |
| 2026-05-04 04:55 | 23.99281 | 113.85526 | 22170 ft | 438 kts | 22° |
| 2026-05-04 04:55 | 24.02013 | 113.87036 | 22699 ft | 442 kts | 22° |
| 2026-05-04 04:56 | 24.04760 | 113.88555 | 23243 ft | 444 kts | 22° |
| 2026-05-04 04:56 | 24.07518 | 113.90081 | 23706 ft | 446 kts | 22° |
| 2026-05-04 04:56 | 24.10300 | 113.91621 | 24090 ft | 449 kts | 22° |
| 2026-05-04 04:56 | 24.13095 | 113.93168 | 24451 ft | 452 kts | 22° |
| 2026-05-04 04:57 | 24.15912 | 113.94728 | 24827 ft | 455 kts | 22° |
| 2026-05-04 04:57 | 24.18746 | 113.96299 | 25157 ft | 458 kts | 22° |
| 2026-05-04 04:57 | 24.21598 | 113.97880 | 25537 ft | 461 kts | 22° |
| 2026-05-04 04:57 | 24.24473 | 113.99477 | 25887 ft | 465 kts | 22° |
| 2026-05-04 04:58 | 24.27368 | 114.01084 | 26270 ft | 468 kts | 22° |
| 2026-05-04 04:58 | 24.30282 | 114.02701 | 26609 ft | 472 kts | 22° |
| 2026-05-04 04:58 | 24.33218 | 114.04329 | 26953 ft | 475 kts | 22° |
| 2026-05-04 04:58 | 24.36139 | 114.05952 | 27352 ft | 478 kts | 22° |
| 2026-05-04 04:59 | 24.39161 | 114.07630 | 27742 ft | 482 kts | 23° |
| 2026-05-04 04:59 | 24.42161 | 114.09300 | 28131 ft | 486 kts | 23° |
| 2026-05-04 04:59 | 24.45186 | 114.10985 | 28555 ft | 490 kts | 23° |
| 2026-05-04 04:59 | 24.48151 | 114.12639 | 28971 ft | 494 kts | 23° |
| 2026-05-04 05:00 | 24.51227 | 114.14355 | 29407 ft | 498 kts | 23° |
| 2026-05-04 05:00 | 24.53274 | 114.15497 | 29702 ft | 501 kts | 23° |
| 2026-05-04 05:00 | 24.60575 | 114.19572 | 30609 ft | 512 kts | 24° |
| 2026-05-04 05:01 | 24.63757 | 114.21349 | 31113 ft | 514 kts | 24° |
| 2026-05-04 05:01 | 24.66955 | 114.23138 | 31509 ft | 518 kts | 24° |
| 2026-05-04 05:01 | 24.70178 | 114.24941 | 31930 ft | 522 kts | 24° |
| 2026-05-04 05:01 | 24.72368 | 114.26166 | 32194 ft | 524 kts | 24° |
| 2026-05-04 05:02 | 24.75632 | 114.27993 | 32604 ft | 528 kts | 24° |
| 2026-05-04 05:02 | 24.78914 | 114.29832 | 33006 ft | 532 kts | 24° |
| 2026-05-04 05:02 | 24.82222 | 114.31687 | 33403 ft | 535 kts | 24° |
| 2026-05-04 05:02 | 24.85555 | 114.33556 | 33776 ft | 539 kts | 24° |
| 2026-05-04 05:03 | 24.88865 | 114.35414 | 34140 ft | 543 kts | 24° |
| 2026-05-04 05:03 | 24.92285 | 114.37335 | 34548 ft | 546 kts | 24° |
| 2026-05-04 05:04 | 25.02408 | 114.43029 | 35998 ft | 546 kts | 22° |
| 2026-05-04 05:04 | 25.05785 | 114.44931 | 36546 ft | 544 kts | 22° |
| 2026-05-04 05:04 | 25.09152 | 114.46828 | 37098 ft | 543 kts | 21° |
| 2026-05-04 05:06 | 25.32294 | 114.59897 | 39213 ft | 538 kts | 20° |
| 2026-05-04 05:06 | 25.35629 | 114.61783 | 39208 ft | 538 kts | 20° |
| 2026-05-04 05:07 | 25.42300 | 114.65563 | 39207 ft | 538 kts | 20° |
| 2026-05-04 05:07 | 25.48969 | 114.69347 | 39207 ft | 540 kts | 20° |
| 2026-05-04 05:09 | 25.78882 | 114.86814 | 39186 ft | 547 kts | 29° |
| 2026-05-04 05:10 | 25.84792 | 114.92246 | 39185 ft | 557 kts | 40° |
| 2026-05-04 05:10 | 25.90108 | 114.98521 | 39185 ft | 558 kts | 42° |
| 2026-05-04 05:11 | 25.95435 | 115.04806 | 39184 ft | 559 kts | 42° |
| 2026-05-04 05:11 | 26.00753 | 115.11112 | 39187 ft | 559 kts | 42° |
| 2026-05-04 05:12 | 26.06066 | 115.17433 | 39177 ft | 560 kts | 43° |
| 2026-05-04 05:12 | 26.11381 | 115.23767 | 39185 ft | 560 kts | 43° |
| 2026-05-04 05:13 | 26.16667 | 115.30075 | 39195 ft | 561 kts | 43° |
| 2026-05-04 05:13 | 26.21998 | 115.36445 | 39198 ft | 563 kts | 43° |
| 2026-05-04 05:14 | 26.27330 | 115.42828 | 39207 ft | 564 kts | 43° |
| 2026-05-04 05:14 | 26.32672 | 115.49231 | 39219 ft | 564 kts | 43° |
| 2026-05-04 05:15 | 26.38021 | 115.55652 | 39223 ft | 565 kts | 43° |
| 2026-05-04 05:15 | 26.43366 | 115.62077 | 39220 ft | 565 kts | 43° |
| 2026-05-04 05:16 | 26.48709 | 115.68508 | 39228 ft | 565 kts | 43° |
| 2026-05-04 05:16 | 26.54048 | 115.74947 | 39220 ft | 565 kts | 43° |
| 2026-05-04 05:17 | 26.59387 | 115.81394 | 39219 ft | 565 kts | 43° |
| 2026-05-04 05:17 | 26.64725 | 115.87850 | 39225 ft | 565 kts | 43° |
| 2026-05-04 05:18 | 26.70053 | 115.94301 | 39224 ft | 565 kts | 43° |
| 2026-05-04 05:18 | 26.75381 | 116.00762 | 39226 ft | 564 kts | 43° |
| 2026-05-04 05:19 | 26.80701 | 116.07223 | 39217 ft | 565 kts | 43° |
| 2026-05-04 05:19 | 26.86015 | 116.13689 | 39226 ft | 564 kts | 43° |
| 2026-05-04 05:20 | 26.91324 | 116.20155 | 39211 ft | 564 kts | 43° |
| 2026-05-04 05:20 | 26.96654 | 116.26605 | 39219 ft | 564 kts | 43° |
| 2026-05-04 05:21 | 27.01999 | 116.33036 | 39214 ft | 564 kts | 43° |
| 2026-05-04 05:21 | 27.07342 | 116.39482 | 39207 ft | 564 kts | 43° |
| 2026-05-04 05:22 | 27.12643 | 116.45893 | 39209 ft | 564 kts | 43° |
| 2026-05-04 05:22 | 27.17975 | 116.52351 | 39209 ft | 564 kts | 43° |
| 2026-05-04 05:23 | 27.23321 | 116.58791 | 39205 ft | 564 kts | 41° |
| 2026-05-04 05:23 | 27.28785 | 116.65112 | 39206 ft | 564 kts | 41° |
| 2026-05-04 05:24 | 27.34240 | 116.71440 | 39201 ft | 563 kts | 41° |
| 2026-05-04 05:24 | 27.39687 | 116.77787 | 39190 ft | 564 kts | 41° |
| 2026-05-04 05:25 | 27.45136 | 116.84155 | 39202 ft | 565 kts | 41° |
| 2026-05-04 05:25 | 27.50590 | 116.90541 | 39204 ft | 566 kts | 41° |
| 2026-05-04 05:26 | 27.56074 | 116.96927 | 39208 ft | 567 kts | 40° |
| 2026-05-04 05:26 | 27.61599 | 117.03295 | 39218 ft | 568 kts | 41° |
| 2026-05-04 05:28 | 27.83643 | 117.28875 | 39205 ft | 566 kts | 40° |
| 2026-05-04 05:29 | 27.89127 | 117.35252 | 39193 ft | 567 kts | 41° |
| 2026-05-04 05:29 | 27.94584 | 117.41630 | 39193 ft | 569 kts | 41° |
| 2026-05-04 05:31 | 28.16726 | 117.67576 | 39224 ft | 575 kts | 39° |
| 2026-05-04 05:32 | 28.22278 | 117.74102 | 39206 ft | 575 kts | 39° |
| 2026-05-04 05:33 | 28.30606 | 117.83915 | 39211 ft | 576 kts | 39° |
| 2026-05-04 05:33 | 28.36160 | 117.90473 | 39215 ft | 576 kts | 39° |
| 2026-05-04 05:34 | 28.41713 | 117.97040 | 39218 ft | 576 kts | 39° |
| 2026-05-04 05:34 | 28.47195 | 118.03712 | 39212 ft | 578 kts | 41° |
| 2026-05-04 05:35 | 28.52639 | 118.10455 | 39215 ft | 579 kts | 40° |
| 2026-05-04 05:35 | 28.58093 | 118.17190 | 39215 ft | 579 kts | 40° |
| 2026-05-04 05:36 | 28.63561 | 118.23939 | 39220 ft | 580 kts | 40° |
| 2026-05-04 05:36 | 28.69021 | 118.30687 | 39219 ft | 580 kts | 40° |
| 2026-05-04 05:37 | 28.74489 | 118.37459 | 39222 ft | 581 kts | 40° |
| 2026-05-04 05:37 | 28.79957 | 118.44241 | 39224 ft | 581 kts | 41° |
| 2026-05-04 05:38 | 28.88152 | 118.54428 | 39225 ft | 581 kts | 41° |
| 2026-05-04 05:38 | 28.93608 | 118.61222 | 39227 ft | 581 kts | 41° |
| 2026-05-04 05:39 | 29.01769 | 118.71407 | 39227 ft | 582 kts | 41° |
| 2026-05-04 05:40 | 29.09943 | 118.81639 | 39224 ft | 581 kts | 41° |
| 2026-05-04 05:40 | 29.15393 | 118.88475 | 39225 ft | 582 kts | 41° |
| 2026-05-04 05:41 | 29.20846 | 118.95318 | 39236 ft | 582 kts | 41° |
| 2026-05-04 05:41 | 29.26298 | 119.02173 | 39231 ft | 582 kts | 41° |
| 2026-05-04 05:42 | 29.31750 | 119.09056 | 39236 ft | 583 kts | 41° |
| 2026-05-04 05:42 | 29.37204 | 119.15955 | 39238 ft | 584 kts | 41° |
| 2026-05-04 05:43 | 29.42657 | 119.22872 | 39243 ft | 586 kts | 41° |
| 2026-05-04 05:45 | 29.62588 | 119.52341 | 39227 ft | 603 kts | 72° |
| 2026-05-04 05:45 | 29.63496 | 119.57048 | 39227 ft | 604 kts | 83° |
| 2026-05-04 05:47 | 29.62208 | 119.90441 | 39227 ft | 599 kts | 94° |
| 2026-05-04 05:47 | 29.62001 | 120.00021 | 39218 ft | 600 kts | 94° |
| 2026-05-04 05:48 | 29.61783 | 120.09611 | 39228 ft | 601 kts | 94° |
| 2026-05-04 05:48 | 29.61557 | 120.19193 | 38944 ft | 595 kts | 94° |
| 2026-05-04 05:49 | 29.61442 | 120.23933 | 38715 ft | 595 kts | 95° |
| 2026-05-04 05:49 | 29.61327 | 120.28688 | 38448 ft | 594 kts | 95° |
| 2026-05-04 05:49 | 29.61216 | 120.33421 | 38175 ft | 592 kts | 95° |
| 2026-05-04 05:49 | 29.61106 | 120.38137 | 37909 ft | 590 kts | 95° |
| 2026-05-04 05:51 | 29.60331 | 120.69353 | 36226 ft | 584 kts | 95° |
| 2026-05-04 05:51 | 29.60208 | 120.74011 | 35988 ft | 583 kts | 95° |
| 2026-05-04 05:52 | 29.60296 | 120.78677 | 35615 ft | 585 kts | 85° |
| 2026-05-04 05:52 | 29.61016 | 120.83279 | 35000 ft | 586 kts | 75° |
| 2026-05-04 05:52 | 29.62378 | 120.87682 | 34319 ft | 583 kts | 63° |
| 2026-05-04 05:52 | 29.64329 | 120.91735 | 33457 ft | 578 kts | 53° |
| 2026-05-04 05:53 | 29.66764 | 120.95371 | 32518 ft | 574 kts | 46° |
| 2026-05-04 05:54 | 29.82409 | 121.20750 | 27742 ft | 535 kts | 55° |
| 2026-05-04 05:55 | 29.84436 | 121.24313 | 27032 ft | 530 kts | 55° |
| 2026-05-04 05:55 | 29.86444 | 121.27847 | 26437 ft | 523 kts | 55° |
| 2026-05-04 05:55 | 29.88520 | 121.31243 | 25713 ft | 516 kts | 47° |
| 2026-05-04 05:55 | 29.91031 | 121.34134 | 25087 ft | 505 kts | 35° |
| 2026-05-04 05:56 | 29.93895 | 121.36379 | 24444 ft | 492 kts | 24° |
| 2026-05-04 05:56 | 29.96894 | 121.38208 | 23821 ft | 485 kts | 22° |
| 2026-05-04 05:56 | 29.99892 | 121.39985 | 23152 ft | 480 kts | 22° |
| 2026-05-04 05:56 | 30.02822 | 121.41751 | 22569 ft | 472 kts | 22° |
| 2026-05-04 05:57 | 30.05696 | 121.43517 | 21986 ft | 464 kts | 23° |
| 2026-05-04 05:57 | 30.08513 | 121.45268 | 21370 ft | 457 kts | 24° |
| 2026-05-04 05:57 | 30.11291 | 121.47006 | 20808 ft | 450 kts | 24° |
| 2026-05-04 05:57 | 30.14017 | 121.48717 | 20247 ft | 442 kts | 24° |
| 2026-05-04 05:58 | 30.16703 | 121.50404 | 19693 ft | 435 kts | 25° |
| 2026-05-04 05:58 | 30.19341 | 121.52062 | 19166 ft | 428 kts | 25° |
| 2026-05-04 05:58 | 30.21934 | 121.53690 | 18628 ft | 421 kts | 25° |
| 2026-05-04 05:58 | 30.24487 | 121.55296 | 18046 ft | 414 kts | 25° |
| 2026-05-04 05:59 | 30.26996 | 121.56882 | 17396 ft | 408 kts | 26° |
| 2026-05-04 05:59 | 30.29426 | 121.58452 | 16763 ft | 402 kts | 26° |
| 2026-05-04 05:59 | 30.31848 | 121.60028 | 16127 ft | 397 kts | 26° |
| 2026-05-04 05:59 | 30.34240 | 121.61585 | 15503 ft | 391 kts | 27° |
| 2026-05-04 06:00 | 30.36590 | 121.63112 | 14884 ft | 386 kts | 27° |
| 2026-05-04 06:00 | 30.38913 | 121.64662 | 14264 ft | 382 kts | 28° |
| 2026-05-04 06:00 | 30.41166 | 121.66254 | 13610 ft | 377 kts | 29° |
| 2026-05-04 06:00 | 30.43386 | 121.67842 | 12901 ft | 373 kts | 29° |
| 2026-05-04 06:01 | 30.45589 | 121.69411 | 12205 ft | 369 kts | 29° |
| 2026-05-04 06:01 | 30.47769 | 121.70954 | 11532 ft | 366 kts | 29° |
| 2026-05-04 06:03 | 30.61687 | 121.75715 | 9396 ft | 279 kts | 340° |
| 2026-05-04 06:03 | 30.63526 | 121.75029 | 9219 ft | 277 kts | 341° |
| 2026-05-04 06:05 | 30.76193 | 121.70291 | 8118 ft | 270 kts | 341° |
| 2026-05-04 06:05 | 30.79752 | 121.68949 | 7779 ft | 267 kts | 341° |
| 2026-05-04 06:05 | 30.81495 | 121.68294 | 7628 ft | 266 kts | 341° |
| 2026-05-04 06:06 | 30.83278 | 121.67625 | 7457 ft | 265 kts | 341° |
| 2026-05-04 06:06 | 30.85007 | 121.66975 | 7312 ft | 264 kts | 341° |
| 2026-05-04 06:06 | 30.86773 | 121.66306 | 7193 ft | 259 kts | 341° |
| 2026-05-04 06:06 | 30.88450 | 121.65670 | 7103 ft | 248 kts | 341° |
| 2026-05-04 06:07 | 30.90087 | 121.65160 | 6947 ft | 242 kts | 354° |
| 2026-05-04 06:07 | 30.91735 | 121.65505 | 6680 ft | 246 kts | 22° |
| 2026-05-04 06:07 | 30.93046 | 121.66790 | 6505 ft | 253 kts | 52° |
| 2026-05-04 06:07 | 30.93745 | 121.68688 | 6351 ft | 258 kts | 69° |
| 2026-05-04 06:08 | 30.94268 | 121.70687 | 6236 ft | 259 kts | 73° |
| 2026-05-04 06:08 | 30.94299 | 121.72772 | 6070 ft | 265 kts | 102° |
| 2026-05-04 06:08 | 30.93473 | 121.74677 | 5915 ft | 267 kts | 131° |
| 2026-05-04 06:08 | 30.91975 | 121.75918 | 5768 ft | 266 kts | 159° |
| 2026-05-04 06:09 | 30.90212 | 121.76523 | 5618 ft | 265 kts | 169° |
| 2026-05-04 06:09 | 30.88412 | 121.76979 | 5459 ft | 265 kts | 168° |
| 2026-05-04 06:11 | 30.76332 | 121.81224 | 4358 ft | 255 kts | 163° |
| 2026-05-04 06:11 | 30.74762 | 121.82004 | 4279 ft | 246 kts | 144° |
| 2026-05-04 06:13 | 30.77272 | 121.92651 | 3284 ft | 211 kts | 1° |
| 2026-05-04 06:14 | 30.85339 | 121.89703 | 3025 ft | 200 kts | 340° |
| 2026-05-04 06:14 | 30.86690 | 121.89209 | 3019 ft | 206 kts | 340° |
| 2026-05-04 06:15 | 30.88055 | 121.88690 | 3005 ft | 206 kts | 339° |
| 2026-05-04 06:15 | 30.89422 | 121.88173 | 3009 ft | 208 kts | 339° |
| 2026-05-04 06:15 | 30.90796 | 121.87654 | 2994 ft | 206 kts | 340° |
| 2026-05-04 06:15 | 30.92142 | 121.87152 | 3001 ft | 207 kts | 339° |
| 2026-05-04 06:16 | 30.93520 | 121.86630 | 3004 ft | 209 kts | 340° |
| 2026-05-04 06:16 | 30.94896 | 121.86120 | 3006 ft | 207 kts | 339° |
| 2026-05-04 06:16 | 30.96267 | 121.85595 | 2998 ft | 207 kts | 340° |
| 2026-05-04 06:16 | 30.97637 | 121.85066 | 2995 ft | 207 kts | 339° |
| 2026-05-04 06:17 | 30.98988 | 121.84564 | 2840 ft | 199 kts | 341° |
| 2026-05-04 06:17 | 31.00200 | 121.84106 | 2547 ft | 187 kts | 341° |
| 2026-05-04 06:17 | 31.01391 | 121.83667 | 2313 ft | 185 kts | 340° |
| 2026-05-04 06:17 | 31.02554 | 121.83230 | 2073 ft | 169 kts | 340° |
| 2026-05-04 06:18 | 31.03651 | 121.82814 | 1857 ft | 163 kts | 339° |
| 2026-05-04 06:18 | 31.04733 | 121.82399 | 1639 ft | 165 kts | 340° |
| 2026-05-04 06:18 | 31.05790 | 121.82001 | 1412 ft | 151 kts | 340° |
| 2026-05-04 06:20 | 31.11385 | 121.79878 | 309 ft | 137 kts | 343° |
| 2026-05-04 06:20 | 31.12287 | 121.79541 | 118 ft | 136 kts | 344° |
| 2026-05-04 06:21 | 31.14185 | 121.78824 | 27 ft | 15 kts | 342° |
| 2026-05-04 06:21 | 31.14291 | 121.78784 | 27 ft | 17 kts | 342° |
| 2026-05-04 06:22 | 31.14408 | 121.78745 | 28 ft | 18 kts | 351° |
| 2026-05-04 06:22 | 31.14535 | 121.78741 | 28 ft | 19 kts | 8° |
| 2026-05-04 06:25 | 31.13965 | 121.79638 | 28 ft | 27 kts | 162° |
| 2026-05-04 06:25 | 31.13779 | 121.79704 | 28 ft | 28 kts | 163° |
| 2026-05-04 06:26 | 31.13589 | 121.79773 | 28 ft | 29 kts | 162° |
| 2026-05-04 06:26 | 31.13483 | 121.79815 | 28 ft | 10 kts | 148° |
| 2026-05-04 06:26 | 31.13450 | 121.79887 | 28 ft | 12 kts | 87° |
| 2026-05-04 06:26 | 31.13477 | 121.79989 | 28 ft | 14 kts | 69° |
| 2026-05-04 06:27 | 31.13445 | 121.80202 | 28 ft | 7 kts | 72° |
| 2026-05-04 06:28 | 31.13460 | 121.80254 | 28 ft | 5 kts | 72° |
| 2026-05-04 06:28 | 31.13462 | 121.80262 | 28 ft | 0 kts | 72° |